Accueil
METAR-TAF:

METAR-TAF

Aéroports :

Base aérienne 156 Bizerte Sidi Ahmed

Bizerte, Tunisie

latitude: 37-15N, longitude: 009-48E, altitude: 5 m

Observation

Le bulletin a été fait il y a 1 heure et 8 minutes, à 23:00 UTC
Vent 6 kt de sud-est
Température 30°C
Humidité 55%
Pression 1010 hPa
Visibilité 10 km ou plus
Quelques nuages à une hauteur de 2000 ft

METAR: DTTB 032300Z 13006KT 9999 FEW020 30/20 Q1010

Heure: 01:08 (00:08 UTC)

Prévision

Le bulletin a été fait il y a 3 heures et 8 minutes, à 21:00 UTC
Prévision valable du 03 à 22 UTC au 04 à 07 UTC
Vent 11 kt de sud-est
Visibilité 10 km ou plus
Quelques nuages à une hauteur de 2000 ft
Evoluant progressivement
du 03 à 22 UTC au 03 à 24 UTC
Vent 10 kt de ouest/sud-ouest

TAF: DTTB 032100Z 0322/0407 14011KT 9999 FEW020 BECMG 0322/0324 25010KT

Observations et prévisions météorologiques de plus de 4000 aéroports (messages METAR et TAF).

Les stations disponibles sont représentées par des disques jaunes et rouges sur la carte.

Passer la souris dessus pour voir le nom de la station.

Cliquer dessus pour voir les observations et prévisions météorologiques.

Pour changer de carte: cliquez sur les boutons verts avec une croix noire pour zoomer, sur le bouton vert avec un tiret pour effectuer un zoom arrière, ou sur les flèches vertes pour les cartes adjacentes.


METAR-TAF: